createdAt,value
2022-08-10T00:01:52.691Z,99.90
2022-08-10T00:04:23.369Z,99.90
2022-08-10T00:06:53.137Z,99.90
2022-08-10T00:09:22.338Z,99.90
2022-08-10T00:11:49.996Z,99.90
2022-08-10T00:14:17.794Z,99.90
2022-08-10T00:16:45.396Z,99.90
2022-08-10T00:19:13.180Z,99.90
2022-08-10T00:21:46.359Z,99.90
2022-08-10T00:24:14.502Z,99.90
2022-08-10T00:27:52.365Z,99.90
2022-08-10T00:29:30.707Z,99.90
2022-08-10T00:31:59.481Z,99.90
2022-08-10T00:34:28.770Z,99.90
2022-08-10T00:36:56.966Z,99.90
2022-08-10T00:39:25.129Z,99.90
2022-08-10T00:42:02.275Z,99.90
2022-08-10T00:44:40.737Z,99.90
2022-08-10T00:47:21.278Z,99.90
2022-08-10T00:49:57.325Z,99.90
2022-08-10T00:52:25.983Z,99.90
2022-08-10T00:54:54.858Z,99.90
2022-08-10T00:57:22.426Z,99.90
2022-08-10T00:59:58.043Z,99.90
2022-08-10T01:02:33.061Z,99.90
2022-08-10T01:05:07.812Z,99.90
2022-08-10T01:08:01.083Z,99.90
2022-08-10T01:10:42.190Z,99.90
2022-08-10T01:13:15.692Z,99.90
2022-08-10T01:16:04.420Z,99.90
2022-08-10T01:18:38.411Z,99.90
2022-08-10T01:21:53.882Z,99.90
2022-08-10T01:24:59.812Z,99.90
2022-08-10T01:27:41.267Z,99.90
2022-08-10T01:30:11.604Z,99.90
2022-08-10T01:32:54.073Z,99.90
2022-08-10T01:35:31.885Z,99.90
2022-08-10T01:38:26.016Z,99.90
2022-08-10T01:41:07.050Z,99.90
2022-08-10T01:43:40.734Z,99.90
2022-08-10T01:46:11.042Z,99.90
2022-08-10T01:48:51.083Z,99.90
2022-08-10T01:51:32.931Z,99.90
2022-08-10T01:54:13.180Z,99.90
2022-08-10T01:56:46.953Z,99.90
2022-08-10T01:59:37.808Z,99.90
2022-08-10T02:02:09.423Z,99.90
2022-08-10T02:04:40.482Z,99.90
2022-08-10T02:07:13.523Z,99.90
2022-08-10T02:09:46.547Z,99.90
2022-08-10T02:12:18.292Z,99.90
2022-08-10T02:14:51.932Z,99.90
2022-08-10T02:17:57.310Z,99.90
2022-08-10T02:20:48.805Z,99.90
2022-08-10T02:23:21.178Z,99.90
2022-08-10T02:25:53.006Z,99.90
2022-08-10T02:28:30.190Z,99.90
2022-08-10T02:31:10.390Z,99.90
2022-08-10T02:33:57.163Z,99.90
2022-08-10T02:36:29.519Z,99.90
2022-08-10T02:39:00.869Z,99.90
2022-08-10T02:45:13.191Z,99.90
2022-08-10T02:45:21.827Z,99.90
2022-08-10T02:47:52.703Z,99.90
2022-08-10T02:50:36.666Z,99.90
2022-08-10T02:53:49.615Z,99.90
2022-08-10T02:56:12.490Z,99.90
2022-08-10T02:58:45.346Z,99.90
2022-08-10T03:01:17.562Z,99.90
2022-08-10T03:03:52.922Z,99.90
2022-08-10T03:06:25.645Z,99.90
2022-08-10T03:08:54.625Z,99.90
2022-08-10T03:12:37.158Z,99.90
2022-08-10T03:14:18.398Z,99.90
2022-08-10T03:16:47.712Z,99.90
2022-08-10T03:20:33.824Z,99.90
2022-08-10T03:22:05.073Z,99.90
2022-08-10T03:24:35.050Z,99.90
2022-08-10T03:27:04.602Z,99.90
2022-08-10T03:30:29.441Z,99.90
2022-08-10T03:32:23.274Z,99.90
2022-08-10T03:34:51.745Z,99.90
2022-08-10T03:37:19.553Z,99.90
2022-08-10T03:39:47.228Z,99.90
2022-08-10T03:42:16.366Z,99.90
2022-08-10T03:44:49.881Z,99.90
2022-08-10T03:47:20.176Z,99.90
2022-08-10T03:49:50.475Z,99.90
2022-08-10T03:52:20.001Z,99.90
2022-08-10T03:54:48.399Z,99.90
2022-08-10T03:57:16.246Z,99.90
2022-08-10T03:59:44.530Z,99.90
2022-08-10T04:02:42.233Z,99.90
2022-08-10T04:05:00.467Z,99.90
2022-08-10T04:07:28.773Z,99.90
2022-08-10T04:09:56.559Z,99.90
2022-08-10T04:12:26.652Z,99.90
2022-08-10T04:14:54.262Z,99.90
2022-08-10T04:18:03.843Z,99.90
2022-08-10T04:20:17.283Z,99.90
2022-08-10T04:22:46.870Z,99.90
2022-08-10T04:25:15.415Z,99.90
2022-08-10T04:27:44.324Z,99.90
2022-08-10T04:30:12.224Z,99.90
2022-08-10T04:32:41.113Z,99.90
2022-08-10T04:35:10.890Z,99.90
2022-08-10T04:37:46.909Z,99.90
2022-08-10T04:40:28.638Z,99.90
2022-08-10T04:43:02.425Z,99.90
2022-08-10T04:45:49.717Z,99.90
2022-08-10T04:48:40.839Z,99.90
2022-08-10T04:51:10.994Z,99.90
2022-08-10T04:54:49.804Z,99.90
2022-08-10T05:05:58.039Z,99.90
2022-08-10T05:08:44.359Z,99.90
2022-08-10T05:11:36.971Z,99.90
2022-08-10T05:14:04.514Z,99.90
2022-08-10T05:16:32.711Z,99.90
2022-08-10T05:19:00.123Z,99.90
2022-08-10T05:22:04.662Z,99.90
2022-08-10T05:24:14.957Z,99.90
2022-08-10T05:27:00.385Z,99.90
2022-08-10T05:29:29.846Z,99.90
2022-08-10T05:31:57.327Z,99.90
2022-08-10T05:34:27.642Z,99.90
2022-08-10T05:36:55.959Z,99.90
2022-08-10T05:39:28.830Z,99.90
2022-08-10T05:42:01.138Z,99.90
2022-08-10T05:44:31.725Z,99.90
2022-08-10T05:46:59.127Z,99.90
2022-08-10T05:49:26.655Z,99.90
2022-08-10T05:51:54.190Z,99.90
2022-08-10T05:54:21.716Z,99.90
2022-08-10T05:56:53.346Z,99.90
2022-08-10T06:00:33.914Z,99.90
2022-08-10T06:02:31.747Z,99.90
2022-08-10T06:05:16.223Z,99.90
2022-08-10T06:07:52.929Z,99.90
2022-08-10T06:10:32.417Z,99.90
2022-08-10T06:13:29.851Z,99.90
2022-08-10T06:16:02.617Z,99.60
2022-08-10T06:18:30.917Z,98.10
2022-08-10T06:20:59.249Z,96.30
2022-08-10T06:23:29.709Z,94.70
2022-08-10T06:26:08.982Z,93.50
2022-08-10T06:29:00.207Z,92.10
2022-08-10T06:31:47.792Z,91.90
2022-08-10T06:34:27.679Z,91.40
2022-08-10T06:36:59.976Z,88.80
2022-08-10T06:39:36.388Z,87.80
2022-08-10T06:42:25.883Z,85.00
2022-08-10T06:44:55.691Z,82.70
2022-08-10T06:47:28.901Z,83.80
2022-08-10T06:50:01.667Z,84.40
2022-08-10T06:52:33.828Z,86.50
2022-08-10T06:55:05.447Z,88.90
2022-08-10T06:57:38.030Z,89.90
2022-08-10T07:00:07.101Z,90.50
2022-08-10T07:03:03.079Z,90.20
2022-08-10T07:05:40.601Z,88.70
2022-08-10T07:08:11.719Z,83.90
2022-08-10T07:10:41.142Z,82.70
2022-08-10T07:14:14.653Z,80.80
2022-08-10T07:16:09.667Z,78.80
2022-08-10T07:18:38.741Z,77.80
2022-08-10T07:21:09.918Z,74.90
2022-08-10T07:23:59.712Z,73.40
2022-08-10T07:26:28.851Z,73.50
2022-08-10T07:28:57.043Z,71.80
2022-08-10T07:31:33.009Z,71.80
2022-08-10T07:34:28.440Z,68.40
2022-08-10T07:37:02.200Z,67.90
2022-08-10T07:39:58.498Z,66.70
2022-08-10T07:42:22.725Z,66.70
2022-08-10T07:44:50.789Z,69.30
2022-08-10T07:47:53.884Z,66.60
2022-08-10T07:50:21.186Z,68.60
2022-08-10T07:52:51.439Z,67.40
2022-08-10T07:56:01.758Z,67.10
2022-08-10T07:58:09.147Z,68.80
2022-08-10T08:00:37.878Z,68.80
2022-08-10T08:03:07.575Z,69.70
2022-08-10T08:05:58.702Z,68.10
2022-08-10T08:08:26.005Z,67.60
2022-08-10T08:10:58.394Z,68.80
2022-08-10T08:13:28.263Z,67.30
2022-08-10T08:16:17.420Z,66.40
2022-08-10T08:18:58.379Z,66.10
2022-08-10T08:24:07.958Z,67.20
2022-08-10T08:24:32.832Z,64.30
2022-08-10T08:27:04.024Z,63.90
2022-08-10T08:29:36.915Z,64.40
2022-08-10T08:32:06.267Z,62.80
2022-08-10T08:34:37.334Z,61.80
2022-08-10T08:37:07.272Z,61.80
2022-08-10T08:39:36.983Z,62.50
2022-08-10T08:42:23.265Z,64.00
2022-08-10T08:45:08.378Z,62.40
2022-08-10T08:48:04.828Z,61.90
2022-08-10T08:50:56.646Z,60.30
2022-08-10T08:54:01.076Z,61.40
2022-08-10T08:56:50.090Z,62.40
2022-08-10T08:59:20.674Z,60.90
2022-08-10T09:02:12.116Z,62.20
2022-08-10T09:04:58.374Z,61.80
2022-08-10T09:07:59.922Z,60.90
2022-08-10T09:11:03.627Z,61.00
2022-08-10T09:13:44.422Z,60.80
2022-08-10T09:16:32.337Z,61.10
2022-08-10T09:19:19.635Z,62.00
2022-08-10T09:22:17.395Z,61.20
2022-08-10T09:24:53.014Z,61.90
2022-08-10T09:27:40.480Z,61.70
2022-08-10T09:30:13.428Z,60.90
2022-08-10T09:36:17.144Z,58.90
2022-08-10T09:36:23.503Z,59.80
2022-08-10T09:38:42.059Z,59.40
2022-08-10T09:41:40.653Z,59.70
2022-08-10T09:44:26.457Z,59.20
2022-08-10T09:46:59.862Z,58.50
2022-08-10T09:49:54.868Z,58.30
2022-08-10T09:52:29.039Z,58.70
2022-08-10T09:56:17.887Z,58.90
2022-08-10T09:58:25.453Z,59.90
2022-08-10T10:02:00.522Z,59.30
2022-08-10T10:04:46.861Z,58.30
2022-08-10T10:07:22.566Z,59.70
2022-08-10T10:10:03.568Z,58.30
2022-08-10T10:13:02.885Z,57.50
2022-08-10T10:15:59.523Z,57.60
2022-08-10T10:18:29.811Z,56.80
2022-08-10T10:21:52.398Z,58.10
2022-08-10T10:24:30.461Z,58.70
2022-08-10T10:27:16.066Z,58.20
2022-08-10T10:29:59.554Z,57.80
2022-08-10T10:32:44.477Z,57.50
2022-08-10T10:35:14.657Z,57.80
2022-08-10T10:38:01.920Z,58.10
2022-08-10T10:40:49.558Z,57.40
2022-08-10T10:43:44.154Z,57.90
2022-08-10T10:46:30.650Z,58.60
2022-08-10T10:49:26.827Z,58.00
2022-08-10T10:52:25.079Z,57.90
2022-08-10T10:55:17.144Z,57.60
2022-08-10T10:57:59.107Z,58.80
2022-08-10T11:00:49.902Z,58.30
2022-08-10T11:03:56.874Z,57.50
2022-08-10T11:07:03.664Z,58.10
2022-08-10T11:10:05.210Z,58.30
2022-08-10T11:12:46.947Z,60.40
2022-08-10T11:15:36.443Z,61.90
2022-08-10T11:18:39.298Z,62.50
2022-08-10T11:21:27.045Z,64.00
2022-08-10T11:24:47.492Z,65.20
2022-08-10T11:27:00.824Z,66.70
2022-08-10T11:29:31.215Z,67.00
2022-08-10T11:32:06.782Z,66.50
2022-08-10T11:35:12.504Z,67.20
2022-08-10T11:38:31.958Z,66.90
2022-08-10T11:42:06.744Z,68.00
2022-08-10T11:44:13.619Z,69.10
2022-08-10T11:46:56.954Z,68.80
2022-08-10T11:49:47.053Z,68.70
2022-08-10T11:52:23.048Z,70.80
2022-08-10T11:54:54.225Z,69.60
2022-08-10T11:57:53.174Z,70.70
2022-08-10T12:00:17.234Z,70.00
2022-08-10T12:03:06.076Z,70.40
2022-08-10T12:05:52.520Z,70.80
2022-08-10T12:10:06.867Z,70.50
2022-08-10T12:11:23.852Z,71.00
2022-08-10T12:14:20.387Z,72.00
2022-08-10T12:16:49.973Z,71.70
2022-08-10T12:20:01.611Z,72.30
2022-08-10T12:22:36.276Z,72.60
2022-08-10T12:25:09.324Z,72.80
2022-08-10T12:27:50.747Z,72.50
2022-08-10T12:30:22.466Z,73.10
2022-08-10T12:33:10.442Z,73.50
2022-08-10T12:36:17.419Z,71.80
2022-08-10T12:38:58.290Z,72.70
2022-08-10T12:41:45.096Z,72.70
2022-08-10T12:44:44.664Z,72.30
2022-08-10T12:47:14.598Z,72.50
2022-08-10T12:50:29.198Z,73.40
2022-08-10T12:52:50.025Z,72.30
2022-08-10T12:55:19.636Z,73.60
2022-08-10T12:57:52.641Z,73.10
2022-08-10T13:00:20.571Z,72.60
2022-08-10T13:02:49.439Z,73.60
2022-08-10T13:05:18.146Z,74.40
2022-08-10T13:08:25.655Z,73.70
2022-08-10T13:10:44.528Z,74.00
2022-08-10T13:13:15.669Z,73.00
2022-08-10T13:15:51.191Z,72.10
2022-08-10T13:18:29.280Z,72.90
2022-08-10T13:21:04.404Z,72.70
2022-08-10T13:24:03.542Z,72.60
2022-08-10T13:27:14.505Z,72.70
2022-08-10T13:29:33.207Z,72.20
2022-08-10T13:32:10.679Z,72.80
2022-08-10T13:34:45.797Z,73.50
2022-08-10T13:37:21.253Z,72.60
2022-08-10T13:39:58.811Z,72.90
2022-08-10T13:42:37.306Z,73.40
2022-08-10T13:45:14.687Z,71.80
2022-08-10T13:47:48.470Z,72.30
2022-08-10T13:50:33.561Z,71.40
2022-08-10T13:53:13.297Z,72.10
2022-08-10T13:56:01.712Z,72.80
2022-08-10T13:58:36.185Z,72.00
2022-08-10T14:01:33.167Z,72.80
2022-08-10T14:04:02.784Z,72.30
2022-08-10T14:06:32.343Z,73.30
2022-08-10T14:09:08.806Z,72.80
2022-08-10T14:11:39.468Z,73.30
2022-08-10T14:14:17.549Z,73.40
2022-08-10T14:16:48.766Z,72.50
2022-08-10T14:19:28.015Z,73.00
2022-08-10T14:21:56.819Z,72.30
2022-08-10T14:24:27.903Z,72.80
2022-08-10T14:27:18.068Z,73.10
2022-08-10T14:29:48.053Z,73.40
2022-08-10T14:32:18.622Z,74.30
2022-08-10T14:36:14.730Z,73.00
2022-08-10T14:37:37.811Z,73.10
2022-08-10T14:40:11.479Z,72.90
2022-08-10T14:42:50.970Z,73.00
2022-08-10T14:45:31.797Z,73.10
2022-08-10T14:48:09.992Z,72.60
2022-08-10T14:50:54.883Z,73.50
2022-08-10T14:53:27.269Z,73.10
2022-08-10T14:55:58.474Z,73.50
2022-08-10T14:58:39.547Z,72.90
2022-08-10T15:02:00.536Z,73.80
2022-08-10T15:04:18.555Z,73.70
2022-08-10T15:06:55.554Z,74.10
2022-08-10T15:09:27.852Z,74.30
2022-08-10T15:12:19.492Z,74.40
2022-08-10T15:14:55.350Z,74.20
2022-08-10T15:17:35.094Z,74.80
2022-08-10T15:20:20.785Z,74.10
2022-08-10T15:22:54.338Z,74.70
2022-08-10T15:25:26.121Z,74.90
2022-08-10T15:28:06.132Z,75.10
2022-08-10T15:30:43.063Z,75.80
2022-08-10T15:34:02.507Z,74.30
2022-08-10T15:36:58.809Z,74.60
2022-08-10T15:40:23.743Z,74.40
2022-08-10T15:43:20.889Z,74.70
2022-08-10T15:46:05.428Z,74.40
2022-08-10T15:48:49.761Z,74.50
2022-08-10T15:51:28.260Z,74.00
2022-08-10T15:54:12.088Z,74.50
2022-08-10T15:56:52.680Z,74.30
2022-08-10T15:59:29.782Z,76.40
2022-08-10T16:02:16.042Z,73.60
2022-08-10T16:04:55.918Z,74.00
2022-08-10T16:07:46.013Z,73.20
2022-08-10T16:10:28.102Z,74.00
2022-08-10T16:13:50.555Z,75.10
2022-08-10T16:15:56.641Z,75.00
2022-08-10T16:18:29.878Z,75.80
2022-08-10T16:21:03.185Z,75.70
2022-08-10T16:23:34.815Z,75.00
2022-08-10T16:26:14.862Z,75.00
2022-08-10T16:28:57.767Z,75.80
2022-08-10T16:31:27.757Z,74.30
2022-08-10T16:33:58.707Z,74.70
2022-08-10T16:36:45.062Z,74.80
2022-08-10T16:39:57.685Z,74.60
2022-08-10T16:42:18.113Z,75.60
2022-08-10T16:45:00.541Z,72.80
2022-08-10T16:47:29.537Z,73.20
2022-08-10T16:50:02.448Z,74.20
2022-08-10T16:52:49.793Z,75.40
2022-08-10T16:55:24.382Z,76.30
2022-08-10T16:58:15.218Z,74.50
2022-08-10T17:00:44.988Z,75.00
2022-08-10T17:04:04.530Z,76.10
2022-08-10T17:06:11.022Z,76.30
2022-08-10T17:08:48.554Z,76.00
2022-08-10T17:11:18.510Z,76.50
2022-08-10T17:13:47.024Z,76.50
2022-08-10T17:16:17.111Z,76.90
2022-08-10T17:18:46.630Z,76.50
2022-08-10T17:21:20.656Z,76.50
2022-08-10T17:23:54.923Z,76.50
2022-08-10T17:26:37.224Z,76.80
2022-08-10T17:29:59.266Z,76.40
2022-08-10T17:32:17.413Z,76.70
2022-08-10T17:34:48.315Z,77.00
2022-08-10T17:37:22.327Z,77.10
2022-08-10T17:40:12.447Z,77.80
2022-08-10T17:42:40.806Z,78.20
2022-08-10T17:45:46.305Z,78.30
2022-08-10T17:48:08.233Z,78.80
2022-08-10T17:50:37.998Z,79.40
2022-08-10T17:53:10.674Z,79.60
2022-08-10T17:55:40.526Z,80.30
2022-08-10T17:58:16.914Z,80.80
2022-08-10T18:00:50.627Z,81.20
2022-08-10T18:03:25.775Z,81.30
2022-08-10T18:06:17.754Z,81.50
2022-08-10T18:08:55.574Z,81.70
2022-08-10T18:11:26.309Z,82.00
2022-08-10T18:14:00.639Z,82.50
2022-08-10T18:16:31.685Z,83.30
2022-08-10T18:19:11.507Z,84.10
2022-08-10T18:21:41.805Z,84.80
2022-08-10T18:24:19.993Z,85.00
2022-08-10T18:26:53.805Z,85.40
2022-08-10T18:29:27.428Z,85.90
2022-08-10T18:31:58.779Z,86.30
2022-08-10T18:34:28.507Z,86.60
2022-08-10T18:36:57.193Z,86.70
2022-08-10T18:39:28.796Z,86.80
2022-08-10T18:42:06.467Z,86.80
2022-08-10T18:44:40.879Z,86.70
2022-08-10T18:47:14.977Z,86.80
2022-08-10T18:49:59.786Z,87.50
2022-08-10T18:52:30.801Z,87.50
2022-08-10T18:55:23.274Z,88.10
2022-08-10T18:58:01.090Z,88.10
2022-08-10T19:00:53.683Z,88.60
2022-08-10T19:03:53.415Z,88.80
2022-08-10T19:06:42.620Z,89.10
2022-08-10T19:09:47.115Z,90.10
2022-08-10T19:12:30.129Z,90.50
2022-08-10T19:15:20.511Z,90.70
2022-08-10T19:18:27.267Z,90.90
2022-08-10T19:21:05.227Z,90.80
2022-08-10T19:24:12.845Z,90.80
2022-08-10T19:27:17.908Z,91.10
2022-08-10T19:30:13.265Z,91.10
2022-08-10T19:33:00.138Z,91.10
2022-08-10T19:36:04.394Z,90.10
2022-08-10T19:38:34.114Z,90.20
2022-08-10T19:41:32.043Z,90.40
2022-08-10T19:44:09.171Z,90.30
2022-08-10T19:47:05.629Z,90.20
2022-08-10T19:49:46.831Z,90.50
2022-08-10T19:52:20.759Z,90.10
2022-08-10T19:55:05.453Z,90.30
2022-08-10T19:57:47.957Z,90.60
2022-08-10T20:00:23.053Z,90.80
2022-08-10T20:03:20.209Z,91.10
2022-08-10T20:06:23.535Z,91.60
2022-08-10T20:08:58.283Z,92.10
2022-08-10T20:11:46.480Z,92.60
2022-08-10T20:14:25.512Z,92.70
2022-08-10T20:17:00.294Z,92.70
2022-08-10T20:19:52.587Z,92.80
2022-08-10T20:22:34.880Z,93.00
2022-08-10T20:25:11.464Z,93.30
2022-08-10T20:28:05.224Z,93.70
2022-08-10T20:30:36.358Z,94.10
2022-08-10T20:33:16.930Z,94.30
2022-08-10T20:36:07.367Z,94.60
2022-08-10T20:38:48.262Z,94.90
2022-08-10T20:41:43.848Z,94.80
2022-08-10T20:44:39.865Z,94.90
2022-08-10T20:47:23.138Z,95.00
2022-08-10T20:50:02.971Z,95.20
2022-08-10T20:52:32.676Z,95.30
2022-08-10T20:55:05.472Z,95.70
2022-08-10T20:57:54.351Z,95.90
2022-08-10T21:00:30.651Z,96.00
2022-08-10T21:03:33.161Z,96.20
2022-08-10T21:06:44.046Z,97.00
2022-08-10T21:09:23.138Z,97.10
2022-08-10T21:12:18.842Z,97.40
2022-08-10T21:15:16.418Z,97.80
2022-08-10T21:17:56.747Z,98.20
2022-08-10T21:23:30.986Z,99.10
2022-08-10T21:25:41.516Z,98.70
2022-08-10T21:26:08.157Z,99.50
2022-08-10T21:28:57.638Z,99.40
2022-08-10T21:31:44.932Z,99.50
2022-08-10T21:34:53.050Z,99.80
2022-08-10T21:38:04.146Z,99.90
2022-08-10T21:41:18.101Z,99.90
2022-08-10T21:44:15.223Z,99.90
2022-08-10T21:48:06.577Z,99.90
2022-08-10T21:51:01.488Z,99.90
2022-08-10T21:54:01.573Z,99.90
2022-08-10T21:56:56.680Z,99.90
2022-08-10T22:00:11.131Z,99.90
2022-08-10T22:02:59.040Z,99.90
2022-08-10T22:05:49.006Z,99.90
2022-08-10T22:08:39.646Z,99.90
2022-08-10T22:11:37.884Z,99.90
2022-08-10T22:14:26.227Z,99.90
2022-08-10T22:18:00.908Z,99.90
2022-08-10T22:20:29.377Z,99.90
2022-08-10T22:23:52.221Z,99.90
2022-08-10T22:27:06.956Z,99.90
2022-08-10T22:30:06.688Z,99.90
2022-08-10T22:33:01.922Z,99.90
2022-08-10T22:36:04.373Z,99.90
2022-08-10T22:39:09.266Z,99.90
2022-08-10T22:42:04.513Z,99.90
2022-08-10T22:44:57.350Z,99.90
2022-08-10T22:47:46.195Z,99.90
2022-08-10T22:50:20.756Z,99.90
2022-08-10T22:52:57.399Z,99.90
2022-08-10T22:55:58.254Z,99.90
2022-08-10T22:58:39.029Z,99.90
2022-08-10T23:01:11.910Z,99.90
2022-08-10T23:03:51.795Z,99.90
2022-08-10T23:06:26.245Z,99.90
2022-08-10T23:09:01.331Z,99.90
2022-08-10T23:11:41.326Z,99.90
2022-08-10T23:14:12.131Z,99.90
2022-08-10T23:17:11.536Z,99.90
2022-08-10T23:19:45.299Z,99.90
2022-08-10T23:22:19.386Z,99.90
2022-08-10T23:25:09.578Z,99.90
2022-08-10T23:27:41.772Z,99.90
2022-08-10T23:30:17.585Z,99.90
2022-08-10T23:32:49.957Z,99.90
2022-08-10T23:36:05.512Z,99.90
2022-08-10T23:38:12.290Z,99.90
2022-08-10T23:40:48.199Z,99.90
2022-08-10T23:43:26.306Z,99.90
2022-08-10T23:46:06.254Z,99.90
2022-08-10T23:48:37.585Z,99.90
2022-08-10T23:51:16.126Z,99.90
2022-08-10T23:53:47.702Z,99.90
2022-08-10T23:56:20.880Z,99.90
2022-08-10T23:58:52.667Z,99.90
